Buoy 47555

sailwx.info

Track history (hours):
 
Tides and Currents Weather Stations Pressure Air Temp Water Temp Dewpoint Dewpoint Depression Visibility Wind Speed Wind Dir Waves Ship Positions

Drifting buoy 47555

Last reported at 2018-Feb-23 07:05 UTC. Time now 2018-Feb-23 08:47 UTC.
Position N 36°04' W 014°51'.

Barometer 1006.1 mb
Water temperature 15.8 ° C

Date/timePositionNaut miles runAvg speedWind from/ knotsBaromVisibWave heightAir tempDewpointWater temp
2018-Feb-23 07:05N 36°04' W 014°51'0 0.0 1006.1 15.8
2018-Feb-23 07:00N 36°04' W 014°51'0 0.0 1006.1 15.9
2018-Feb-23 06:05N 36°04' W 014°51'0 0.0 1006.1 15.9
2018-Feb-23 06:00N 36°04' W 014°51'0 0.5 1006.1 15.9
2018-Feb-23 05:04N 36°04' W 014°52'0 0.0 1006.3 15.9
2018-Feb-23 05:00N 36°04' W 014°52'0 0.6 1006.3 15.9
2018-Feb-23 04:08N 36°04' W 014°52'0 0.0 1006.7 15.9
2018-Feb-23 04:00N 36°04' W 014°52'0 0.0 1006.7 15.9
2018-Feb-23 03:00N 36°04' W 014°52'0 0.5 1007.3 15.9
2018-Feb-23 02:07N 36°04' W 014°53'0 0.0 1008.0 15.9
2018-Feb-23 02:00N 36°04' W 014°53'1 0.6 1008.0 15.9
2018-Feb-23 01:04N 36°04' W 014°53'0 0.0 1008.6 15.9
2018-Feb-23 01:00N 36°04' W 014°53'0 0.0 1008.6 15.9
2018-Feb-23 00:04N 36°04' W 014°53'0 0.0 1009.0 15.9
2018-Feb-23 00:00N 36°04' W 014°53'1 0.7 1009.0 15.9
2018-Feb-22 23:05N 36°03' W 014°53'1 7.2 1009.4 15.9
2018-Feb-22 23:00N 36°04' W 014°53'1 0.8 1009.4 15.9
2018-Feb-22 22:00N 36°03' W 014°52'0 0.5 1009.6 15.9
2018-Feb-22 21:04N 36°03' W 014°52'0 0.0 1009.7 15.9
2018-Feb-22 21:00N 36°03' W 014°52'0 0.5 1009.7 15.9
2018-Feb-22 20:04N 36°03' W 014°51'0 0.0 1009.5 15.9
2018-Feb-22 20:00N 36°03' W 014°51'1 0.7 1009.5 15.9
2018-Feb-22 19:05N 36°04' W 014°51'0 0.0 1009.5 15.9
2018-Feb-22 19:00N 36°04' W 014°51'0 0.0 1009.5 15.9
2018-Feb-22 18:00N 36°04' W 014°51'1 0.8 1009.3 16.0
2018-Feb-22 17:00N 36°04' W 014°50'0 0.5 1009.9 16.0
2018-Feb-22 16:04N 36°04' W 014°51'0 0.0 1010.3 16.0
2018-Feb-22 16:00N 36°04' W 014°51'0 0.0 1010.3 16.0
2018-Feb-22 15:04N 36°04' W 014°51'0 0.0 1010.7 16.0
2018-Feb-22 15:00N 36°04' W 014°51'0 0.0 1010.7 16.0
2018-Feb-22 14:00N 36°04' W 014°51'0 0.5 1011.7 16.0
2018-Feb-22 13:00N 36°04' W 014°52'1 0.8 1012.5 16.0
2018-Feb-22 12:05N 36°05' W 014°51'0 0.0 1012.7 16.0
2018-Feb-22 12:00N 36°05' W 014°51'0 0.5 1012.7 16.0
2018-Feb-22 11:05N 36°05' W 014°50'0 0.0 1012.6 15.9
2018-Feb-22 11:00N 36°05' W 014°50'1 0.8 1012.6 16.0
2018-Feb-22 10:04N 36°05' W 014°50'0 0.0 1012.4 16.0
2018-Feb-22 10:00N 36°05' W 014°50'1 0.6 1012.4 16.0
2018-Feb-22 09:00N 36°06' W 014°50'1 0.8 1012.2 16.0
2018-Feb-22 08:05N 36°07' W 014°49'1 7.2 1012.0 15.9
2018-Feb-22 08:00N 36°07' W 014°49'0 0.0 1012.0 15.9
2018-Feb-22 07:07N 36°07' W 014°49'0 0.0 1011.6 15.9
2018-Feb-22 07:00N 36°07' W 014°49'1 0.6 1011.6 15.9
2018-Feb-22 06:04N 36°08' W 014°49'1 9.0 1011.5 15.9
2018-Feb-22 06:00N 36°08' W 014°49'0 0.0 1011.5 15.9
2018-Feb-22 05:04N 36°08' W 014°49'0 0.0 1011.3 15.9
2018-Feb-22 05:00N 36°08' W 014°49'1 0.7 1011.3 15.9
2018-Feb-22 04:06N 36°09' W 014°49'0 0.0 1011.6 16.0
2018-Feb-22 04:00N 36°09' W 014°49'1 0.9 1011.6 16.0
2018-Feb-22 03:08N 36°10' W 014°49'0 3.6 1012.0 16.0
2018-Feb-22 03:00N 36°10' W 014°49'10 0.3 1012.0 16.0
2018-Feb-20 14:04N 36°17' W 014°41'0 0.0 1021.3 15.9
2018-Feb-20 14:00N 36°17' W 014°41'1 0.8 1021.3 15.9
2018-Feb-20 13:05N 36°17' W 014°41'1 7.2 1022.1 15.9
2018-Feb-20 13:00N 36°17' W 014°41'1 0.6 1022.1 15.9
2018-Feb-20 12:00N 36°17' W 014°41'1 0.9 1022.7 15.9
2018-Feb-20 11:08N 36°18' W 014°40'0 0.0 1022.9 15.9
2018-Feb-20 11:00N 36°18' W 014°40'0 0.5 1022.9 15.9
2018-Feb-20 10:04N 36°18' W 014°40'0 0.0 1022.8 15.9
2018-Feb-20 10:00N 36°18' W 014°40'1 0.8 1022.8 15.9
2018-Feb-20 09:04N 36°19' W 014°39'0 0.0 1022.7 15.9
2018-Feb-20 09:00N 36°19' W 014°39'1 0.7 1022.7 15.9
2018-Feb-20 08:05N 36°19' W 014°39'0 0.0 1022.2 15.9
2018-Feb-20 08:00N 36°19' W 014°39'0 0.5 1022.2 15.9
2018-Feb-20 07:05N 36°19' W 014°38'0 0.0 1022.0 15.9
2018-Feb-20 07:00N 36°19' W 014°38'0 0.5 1022.0 15.9
2018-Feb-20 06:04N 36°19' W 014°38'0 0.0 1022.0 15.9
2018-Feb-20 06:00N 36°19' W 014°38'0 0.5 1022.0 15.9
2018-Feb-20 05:04N 36°19' W 014°37'0 0.0 1022.3 15.9
2018-Feb-20 05:00N 36°19' W 014°37'0 0.5 1022.3 15.9
2018-Feb-20 04:02N 36°19' W 014°37'0 0.0 1022.6 16.0
2018-Feb-20 04:00N 36°19' W 014°37'0 0.5 1022.6 16.0
2018-Feb-20 03:04N 36°19' W 014°36'1 9.0 1023.0 15.9
2018-Feb-20 03:00N 36°20' W 014°36'0 0.5 1023.0 15.9
2018-Feb-20 02:00N 36°20' W 014°35'1 0.8 1023.1 15.9
2018-Feb-20 01:05N 36°20' W 014°35'0 0.0 1023.3 15.9
2018-Feb-20 01:00N 36°20' W 014°35'1 0.8 1023.3 16.0
2018-Feb-20 00:05N 36°21' W 014°34'0 0.0 1023.5 16.0
2018-Feb-20 00:00N 36°21' W 014°34'0 0.5 1023.5 16.0
2018-Feb-19 23:05N 36°21' W 014°34'1 7.2 1023.5 16.0
2018-Feb-19 23:00N 36°22' W 014°34'0 0.5 1023.5 16.0
2018-Feb-19 22:04N 36°22' W 014°33'1 9.0 1023.6 16.0
2018-Feb-19 22:00N 36°22' W 014°33'0 0.0 1023.6 16.0
2018-Feb-19 21:04N 36°22' W 014°33'0 0.0 1023.4 16.0
2018-Feb-19 21:00N 36°22' W 014°33'1 0.8 1023.4 16.0
2018-Feb-19 20:04N 36°23' W 014°32'0 0.0 1023.0 15.9
2018-Feb-19 20:00N 36°23' W 014°32'1 0.6 1023.0 15.9
2018-Feb-19 19:04N 36°23' W 014°32'0 0.0 1022.9 15.9
2018-Feb-19 19:00N 36°23' W 014°32'0 0.5 1022.9 15.9
2018-Feb-19 18:05N 36°23' W 014°32'1 7.2 1022.5 15.9
2018-Feb-19 18:00N 36°24' W 014°32'0 0.0 1022.5 15.9
2018-Feb-19 17:05N 36°24' W 014°32'0 0.0 1022.3 16.0
2018-Feb-19 17:00N 36°24' W 014°32'0 0.5 1022.3 16.0
2018-Feb-19 16:00N 36°24' W 014°31'1 0.8 1022.2 16.0
2018-Feb-19 15:05N 36°25' W 014°31'0 0.0 1022.2 15.9
2018-Feb-19 15:00N 36°25' W 014°31'0 0.5 1022.2 16.0
2018-Feb-19 14:04N 36°25' W 014°30'0 0.0 1022.7 15.9
2018-Feb-19 14:00N 36°25' W 014°30'1 0.8 1022.7 15.9
2018-Feb-19 13:05N 36°25' W 014°29'0 5.8 1023.2 15.9
2018-Feb-19 13:00N 36°25' W 014°30'1 1.2 1023.2 15.9
2018-Feb-19 12:02N 36°26' W 014°29'0 0.0 1023.3 15.9
2018-Feb-19 12:00N 36°26' W 014°29'0 0.5 1023.3 15.9
2018-Feb-19 11:00N 36°26' W 014°28'1 0.7 1023.4 15.9
2018-Feb-19 10:05N 36°26' W 014°28'0 0.0 1023.2 15.9
2018-Feb-19 10:00N 36°26' W 014°28'0 0.5 1023.2 15.9
2018-Feb-19 09:00N 36°26' W 014°28'0 0.0 1022.9 15.8
2018-Feb-19 08:01N 36°26' W 014°28'0 0.0 1022.8 15.9
2018-Feb-19 08:00N 36°26' W 014°28'0 0.5 1022.8 15.9
2018-Feb-19 07:06N 36°26' W 014°27'0 0.0 1022.2 15.9
2018-Feb-19 07:00N 36°26' W 014°27'0 0.5 1022.2 15.9
2018-Feb-19 06:04N 36°26' W 014°26'0 0.0 1022.2 15.9
2018-Feb-19 06:00N 36°26' W 014°26'0 0.5 1022.2 15.9
2018-Feb-19 05:04N 36°26' W 014°26'0 7.2 1021.8 15.9
2018-Feb-19 05:00N 36°26' W 014°26'0 0.5 1021.8 15.9
2018-Feb-19 04:00N 36°26' W 014°26'0 0.5 1021.6 15.9
2018-Feb-19 03:05N 36°26' W 014°25'0 0.0 1021.8 15.9
2018-Feb-19 03:00N 36°26' W 014°25'0 0.5 1021.8 16.0
2018-Feb-19 02:05N 36°26' W 014°25'0 0.0 1022.1 15.9
2018-Feb-19 02:00N 36°26' W 014°25'0 0.5 1022.1 16.0
2018-Feb-19 01:05N 36°26' W 014°24'0 0.0 1022.6 15.9
2018-Feb-19 01:00N 36°26' W 014°24'0 0.5 1022.6 16.0
2018-Feb-19 00:04N 36°26' W 014°23'0 0.0 1023.0 15.9
2018-Feb-19 00:00N 36°26' W 014°23'1 0.9 1023.0 16.0
2018-Feb-18 23:07N 36°27' W 014°23'0 0.0 1023.2 15.9
2018-Feb-18 23:00N 36°27' W 014°23'0 0.0 1023.2 15.9
2018-Feb-18 22:05N 36°27' W 014°23'0 0.0 1023.4 15.9
2018-Feb-18 22:00N 36°27' W 014°23'0 0.5 1023.4 15.9
2018-Feb-18 21:04N 36°27' W 014°22'1 0.6 1023.4 15.9
2018-Feb-18 20:05N 36°28' W 014°22'0 0.0 1023.3 15.9
2018-Feb-18 20:00N 36°28' W 014°22'0 0.5 1023.3 15.9
2018-Feb-18 19:00N 36°28' W 014°22'0 0.0 1023.4 15.9
2018-Feb-18 18:01N 36°28' W 014°22'0 0.0 1023.1 15.9
2018-Feb-18 18:00N 36°28' W 014°22'0 0.0 1023.1 16.0
2018-Feb-18 17:06N 36°28' W 014°22'0 0.0 1023.2 15.9
2018-Feb-18 17:00N 36°28' W 014°22'0 0.5 1023.2 16.0
2018-Feb-18 16:05N 36°28' W 014°21'0 0.0 1023.3 16.0
2018-Feb-18 16:00N 36°28' W 014°21'0 0.5 1023.3 16.0
2018-Feb-18 15:05N 36°28' W 014°20'0 0.0 1023.5 16.0
2018-Feb-18 15:00N 36°28' W 014°20'1 1.1 1023.5 16.0
2018-Feb-18 14:06N 36°28' W 014°19'0 0.0 1024.1 16.0
2018-Feb-18 14:00N 36°28' W 014°19'0 0.5 1024.1 16.0
2018-Feb-18 13:05N 36°28' W 014°19'0 0.0 1024.9 16.0
2018-Feb-18 13:00N 36°28' W 014°19'0 0.5 1024.9 16.0
2018-Feb-18 12:05N 36°28' W 014°18'0 0.0 1025.4 16.0
2018-Feb-18 12:00N 36°28' W 014°18'1 0.8 1025.4 16.0
2018-Feb-18 11:05N 36°28' W 014°17'0 0.0 1025.6 15.9
2018-Feb-18 11:00N 36°28' W 014°17'1 0.8 1025.6 16.0
2018-Feb-18 10:00N 36°29' W 014°17'1 0.6 1025.8 16.0
2018-Feb-18 09:04N 36°29' W 014°17'0 0.0 1025.9 15.9
2018-Feb-18 09:00N 36°29' W 014°17'0 0.5 1025.9 15.9
2018-Feb-18 08:05N 36°29' W 014°16'0 0.0 1025.5 16.0
2018-Feb-18 08:00N 36°29' W 014°16'1 0.6 1025.5 16.0
2018-Feb-18 07:04N 36°30' W 014°16'0 0.0 1025.3 16.0
2018-Feb-18 07:00N 36°30' W 014°16'0 0.5 1025.3 16.0
2018-Feb-18 06:05N 36°30' W 014°16'0 0.0 1025.2 16.0
2018-Feb-18 06:00N 36°30' W 014°16'0 0.0 1025.2 16.0
2018-Feb-18 05:05N 36°30' W 014°16'0 0.0 1025.1 15.9
2018-Feb-18 05:00N 36°30' W 014°16'0 0.5 1025.1 15.9
2018-Feb-18 04:06N 36°30' W 014°15'0 0.0 1025.6 15.9
2018-Feb-18 04:00N 36°30' W 014°15'0 0.5 1025.6 15.9
2018-Feb-18 03:05N 36°30' W 014°14'0 0.0 1026.1 15.9
2018-Feb-18 03:00N 36°30' W 014°14'0 0.0 1026.1 15.9
2018-Feb-18 02:04N 36°30' W 014°14'0 0.0 1026.5 15.9
2018-Feb-18 02:00N 36°30' W 014°14'0 0.5 1026.5 15.9
2018-Feb-18 01:04N 36°30' W 014°14'0 0.0 1026.8 15.9
2018-Feb-18 01:00N 36°30' W 014°14'1 0.6 1026.8 15.9
2018-Feb-18 00:04N 36°31' W 014°14'0 0.0 1026.9 15.9
2018-Feb-18 00:00N 36°31' W 014°14'0 0.5 1026.9 15.9
2018-Feb-17 23:05N 36°31' W 014°13'1 7.2 1027.3 15.9
2018-Feb-17 23:00N 36°31' W 014°13'0 0.0 1027.3 15.9
2018-Feb-17 22:04N 36°31' W 014°13'0 0.0 1027.1 15.9
2018-Feb-17 22:00N 36°31' W 014°13'0 0.5 1027.1 15.9
2018-Feb-17 21:04N 36°31' W 014°13'0 0.0 1027.0 15.9
2018-Feb-17 21:00N 36°31' W 014°13'1 0.8 1027.0 16.0
2018-Feb-17 20:04N 36°32' W 014°12'0 0.0 1026.7 16.0
2018-Feb-17 20:00N 36°32' W 014°12'0 0.5 1026.7 16.0
2018-Feb-17 19:05N 36°32' W 014°11'0 0.0 1026.4 16.0
2018-Feb-17 19:00N 36°32' W 014°11'1 0.9 1026.4 16.0
2018-Feb-17 18:09N 36°32' W 014°11'0 0.0 1026.1 16.0
2018-Feb-17 17:04N 36°32' W 014°11'0 0.0 1026.0 16.0
2018-Feb-17 17:00N 36°32' W 014°11'0 0.5 1026.0 16.0
2018-Feb-17 16:04N 36°32' W 014°10'0 0.0 1025.8 16.0
2018-Feb-17 16:00N 36°32' W 014°10'0 0.6 1025.8 16.0
2018-Feb-17 15:08N 36°32' W 014°10'0 0.0 1025.7 16.0
2018-Feb-17 15:00N 36°32' W 014°10'0 0.5 1025.7 16.0
2018-Feb-17 14:05N 36°32' W 014°09'0 0.0 1026.2 16.1
2018-Feb-17 14:00N 36°32' W 014°09'1 0.8 1026.2 16.1
2018-Feb-17 13:00N 36°33' W 014°08'0 0.5 1026.8 16.1
2018-Feb-17 12:00N 36°33' W 014°08'1 0.9 1027.3 16.0
2018-Feb-17 11:06N 36°34' W 014°07'0 0.0 1027.1 16.0
2018-Feb-17 11:00N 36°34' W 014°07'1 0.8 1027.1 16.0
2018-Feb-17 10:04N 36°34' W 014°07'0 0.0 1026.9 16.0
2018-Feb-17 10:00N 36°34' W 014°07'1 0.6 1026.9 16.0
2018-Feb-17 09:04N 36°35' W 014°07'0 0.0 1026.3 16.0
2018-Feb-17 09:00N 36°35' W 014°07'1 0.8 1026.3 16.0
2018-Feb-17 08:01N 36°35' W 014°06'0 0.0 1025.8 16.0
2018-Feb-17 08:00N 36°35' W 014°06'1 0.7 1025.8 16.0
2018-Feb-17 07:06N 36°36' W 014°06'0 0.0 1025.4 16.0
2018-Feb-17 07:00N 36°36' W 014°06'0 0.0 1025.4 16.0
2018-Feb-17 06:04N 36°36' W 014°06'0 0.0 1025.2 16.0
2018-Feb-17 06:00N 36°36' W 014°06'1 0.8 1025.2 16.0
2018-Feb-17 05:00N 36°37' W 014°07'0 0.0 1025.0 16.0
2018-Feb-17 04:05N 36°37' W 014°07'0 5.8 1025.0 16.0
2018-Feb-17 04:00N 36°37' W 014°07'0 0.0 1025.0 16.0
2018-Feb-17 03:04N 36°37' W 014°07'0 0.0 1025.0 16.0
2018-Feb-17 03:00N 36°37' W 014°07'0 0.5 1025.0 16.0
2018-Feb-17 02:04N 36°37' W 014°08'0 0.0 1025.2 16.0
2018-Feb-17 02:00N 36°37' W 014°08'0 0.5 1025.2 16.0
2018-Feb-17 01:00N 36°37' W 014°08'0 0.0 1025.4 16.0
2018-Feb-17 00:06N 36°37' W 014°08'0 0.0 1025.5 16.0
2018-Feb-17 00:00N 36°37' W 014°08'0 0.0 1025.5 16.0
2018-Feb-16 23:05N 36°37' W 014°08'0 0.0 1025.6 16.0
2018-Feb-16 23:00N 36°37' W 014°08'0 0.0 1025.6 16.0
2018-Feb-16 22:04N 36°37' W 014°08'0 0.0 1025.4 16.0
2018-Feb-16 22:00N 36°37' W 014°08'1 0.6 1025.4 16.0
2018-Feb-16 21:00N 36°37' W 014°08'0 0.5 1025.2 16.1
2018-Feb-16 20:00N 36°37' W 014°09'0 0.0 1024.8 16.1
2018-Feb-16 19:05N 36°37' W 014°09'1 9.2 1024.5 16.1
2018-Feb-16 19:00N 36°38' W 014°10'0 0.0 1024.5 16.1
2018-Feb-16 18:05N 36°38' W 014°10'0 5.8 1024.0 16.1
2018-Feb-16 18:00N 36°38' W 014°10'0 0.0 1024.0 16.1
2018-Feb-16 17:05N 36°38' W 014°10'0 5.8 1023.9 16.1
2018-Feb-16 17:00N 36°38' W 014°11'0 0.5 1023.9 16.1
2018-Feb-16 16:00N 36°38' W 014°11'0 0.5 1023.7 16.1
2018-Feb-16 15:04N 36°38' W 014°12'0 0.0 1023.7 16.1
2018-Feb-16 15:00N 36°38' W 014°12'1 0.6 1023.7 16.1
2018-Feb-16 14:00N 36°37' W 014°12'0 0.5 1024.2 16.1
2018-Feb-16 13:05N 36°37' W 014°13'0 0.0 1024.7 16.0
2018-Feb-16 13:00N 36°37' W 014°13'1 0.7 1024.7 16.0
2018-Feb-16 12:08N 36°37' W 014°13'0 0.0 1025.2 16.0
2018-Feb-16 12:00N 36°37' W 014°13'0 0.0 1025.2 16.0
2018-Feb-16 11:06N 36°37' W 014°13'0 0.0 1025.3 16.0
2018-Feb-16 11:00N 36°37' W 014°13'0 0.0 1025.3 16.0
2018-Feb-16 10:04N 36°37' W 014°13'0 7.2 1025.0 15.9
2018-Feb-16 10:00N 36°37' W 014°13'1 0.7 1025.0 15.9
2018-Feb-16 09:05N 36°37' W 014°13'0 0.0 1024.6 15.9
2018-Feb-16 09:00N 36°37' W 014°13'0 0.0 1024.6 15.9
2018-Feb-16 08:00N 36°37' W 014°13'0 0.5 1024.0 15.9
2018-Feb-16 07:05N 36°37' W 014°14'0 0.0 1023.8 15.9
2018-Feb-16 07:00N 36°37' W 014°14'1 0.6 1023.8 15.9
2018-Feb-16 06:04N 36°37' W 014°14'0 7.2 1023.9 15.9
2018-Feb-16 06:00N 36°37' W 014°14'0 0.0 1023.9 16.0
2018-Feb-16 05:01N 36°37' W 014°14'0 0.0 1023.9 15.9
2018-Feb-16 05:00N 36°37' W 014°14'0 0.5 1023.9 15.9
2018-Feb-16 04:06N 36°37' W 014°15'0 0.0 1024.1 15.9
2018-Feb-16 04:00N 36°37' W 014°15'1 0.7 1024.1 16.0
2018-Feb-16 03:07N 36°36' W 014°15'0 0.0 1024.4 16.0
2018-Feb-16 03:00N 36°36' W 014°15'1 0.8 1024.4 16.0
2018-Feb-16 02:04N 36°35' W 014°16'0 0.0 1024.6 16.0
2018-Feb-16 01:04N 36°35' W 014°16'0 0.0 1024.8 16.0
2018-Feb-16 01:00N 36°35' W 014°16'1 0.8 1024.8 16.0
2018-Feb-16 00:05N 36°35' W 014°15'0 5.8 1025.0 16.0
2018-Feb-16 00:00N 36°35' W 014°16'0 0.5 1025.0 16.0
2018-Feb-15 23:07N 36°35' W 014°15'0 0.0 1025.4 16.0
2018-Feb-15 23:00N 36°35' W 014°15'0 0.0 1025.4 16.0
2018-Feb-15 22:04N 36°35' W 014°15'0 0.0 1025.5 16.0
2018-Feb-15 22:00N 36°35' W 014°15'0 0.0 1025.5 16.0
2018-Feb-15 21:04N 36°35' W 014°15'0 0.0 1025.6 15.9
2018-Feb-15 21:00N 36°35' W 014°15'0 0.0 1025.6 16.0
2018-Feb-15 20:05N 36°35' W 014°15'0 0.0 1025.6 16.0
2018-Feb-15 20:01N 36°35' W 014°15'0 0.0 1025.4 16.1
2018-Feb-15 20:00N 36°35' W 014°15'0 0.0 1025.6 16.0
2018-Feb-15 19:00N 36°35' W 014°15'0 0.0 1025.4 16.1
2018-Feb-15 18:05N 36°35' W 014°15'0 0.0 1025.0 16.1
2018-Feb-15 18:00N 36°35' W 014°15'0 0.5 1025.0 16.1
2018-Feb-15 17:05N 36°35' W 014°16'0 0.0 1024.4 16.1
2018-Feb-15 17:00N 36°35' W 014°16'0 0.0 1024.4 16.1
2018-Feb-15 16:04N 36°35' W 014°16'0 0.0 1024.2 16.1
2018-Feb-15 16:00N 36°35' W 014°16'1 0.8 1024.2 16.2
2018-Feb-15 15:04N 36°34' W 014°16'0 0.0 1024.3 16.1
2018-Feb-15 15:00N 36°34' W 014°16'0 0.0 1024.3 16.1
2018-Feb-15 14:06N 36°34' W 014°16'0 0.0 1024.9 16.1
2018-Feb-15 14:00N 36°34' W 014°16'1 0.7 1024.9 16.1
2018-Feb-15 13:05N 36°34' W 014°16'0 5.8 1025.6 16.1
2018-Feb-15 13:00N 36°34' W 014°17'1 0.7 1025.6 16.1
2018-Feb-15 12:05N 36°33' W 014°17'0 0.0 1026.0 16.0
2018-Feb-15 12:00N 36°33' W 014°17'0 0.0 1026.0 16.0
2018-Feb-15 11:04N 36°33' W 014°17'0 0.0 1026.0 16.0
2018-Feb-15 11:00N 36°33' W 014°17'1 0.7 1026.0 16.0
2018-Feb-15 10:06N 36°32' W 014°17'0 0.0 1026.1 16.0
2018-Feb-15 10:00N 36°32' W 014°17'0 0.0 1026.1 16.0
2018-Feb-15 09:04N 36°32' W 014°17'0 0.0 1025.6 16.0
2018-Feb-15 09:00N 36°32' W 014°17'1 0.7 1025.6 16.0
2018-Feb-15 08:05N 36°32' W 014°17'0 0.0 1024.8 16.0
2018-Feb-15 08:00N 36°32' W 014°17'0 0.5 1024.8 16.0
2018-Feb-15 07:04N 36°32' W 014°17'0 0.0 1024.0 16.0
2018-Feb-15 07:00N 36°32' W 014°17'0 0.0 1024.0 16.0
2018-Feb-15 06:05N 36°32' W 014°17'0 0.0 1023.6 16.0
2018-Feb-15 06:00N 36°32' W 014°17'1 0.7 1023.6 16.0
2018-Feb-15 05:05N 36°31' W 014°17'0 0.0 1023.4 16.0
2018-Feb-15 05:00N 36°31' W 014°17'0 0.0 1023.4 16.0
2018-Feb-15 04:05N 36°31' W 014°17'0 0.0 1023.6 16.0
2018-Feb-15 04:00N 36°31' W 014°17'1 0.6 1023.6 16.0
2018-Feb-15 03:04N 36°31' W 014°17'0 0.0 1024.0 16.0
2018-Feb-15 03:00N 36°31' W 014°17'1 0.6 1024.0 16.0
2018-Feb-15 02:00N 36°30' W 014°17'0 0.0 1024.0 16.0
2018-Feb-15 01:00N 36°30' W 014°17'5 0.1 1024.3 16.0
2018-Feb-13 13:01N 36°28' W 014°23'0 0.0 1026.4 16.0
2018-Feb-13 13:00N 36°28' W 014°23'0 0.0 1026.4 16.0
2018-Feb-13 12:08N 36°28' W 014°23'0 0.0 1026.8 16.0
2018-Feb-13 12:00N 36°28' W 014°23'1 0.9 1026.8 16.0
2018-Feb-13 11:06N 36°27' W 014°23'0 0.0 1026.9 15.9
2018-Feb-13 11:00N 36°27' W 014°23'0 0.0 1026.9 16.0
2018-Feb-13 10:04N 36°27' W 014°23'0 0.0 1027.1 15.9
2018-Feb-13 10:00N 36°27' W 014°23'0 0.6 1027.1 15.9
2018-Feb-13 09:08N 36°27' W 014°22'0 0.0 1026.9 15.9
2018-Feb-13 09:00N 36°27' W 014°22'0 0.0 1026.9 15.9
2018-Feb-13 08:04N 36°27' W 014°22'0 0.0 1026.5 16.0
2018-Feb-13 08:00N 36°27' W 014°22'0 0.5 1026.5 16.0
2018-Feb-13 07:07N 36°27' W 014°22'   1026.2 16.0
Track history (hours):
 
Tides and Currents Weather Stations Pressure Air Temp Water Temp Dewpoint Dewpoint Depression Visibility Wind Speed Wind Dir Waves Ship Positions

Drifting buoy 47555

Last reported at 2018-Feb-23 07:05 UTC. Time now 2018-Feb-23 08:47 UTC.
Position N 36°04' W 014°51'.

Barometer 1006.1 mb
Water temperature 15.8 ° C

Date/timePositionNaut miles runAvg speedWind from/ knotsBaromVisibWave heightAir tempDewpointWater temp
2018-Feb-23 07:05N 36°04' W 014°51'0 0.0 1006.1 15.8
2018-Feb-23 07:00N 36°04' W 014°51'0 0.0 1006.1 15.9
2018-Feb-23 06:05N 36°04' W 014°51'0 0.0 1006.1 15.9
2018-Feb-23 06:00N 36°04' W 014°51'0 0.5 1006.1 15.9
2018-Feb-23 05:04N 36°04' W 014°52'0 0.0 1006.3 15.9
2018-Feb-23 05:00N 36°04' W 014°52'0 0.6 1006.3 15.9
2018-Feb-23 04:08N 36°04' W 014°52'0 0.0 1006.7 15.9
2018-Feb-23 04:00N 36°04' W 014°52'0 0.0 1006.7 15.9
2018-Feb-23 03:00N 36°04' W 014°52'0 0.5 1007.3 15.9
2018-Feb-23 02:07N 36°04' W 014°53'0 0.0 1008.0 15.9
2018-Feb-23 02:00N 36°04' W 014°53'1 0.6 1008.0 15.9
2018-Feb-23 01:04N 36°04' W 014°53'0 0.0 1008.6 15.9
2018-Feb-23 01:00N 36°04' W 014°53'0 0.0 1008.6 15.9
2018-Feb-23 00:04N 36°04' W 014°53'0 0.0 1009.0 15.9
2018-Feb-23 00:00N 36°04' W 014°53'1 0.7 1009.0 15.9
2018-Feb-22 23:05N 36°03' W 014°53'1 7.2 1009.4 15.9
2018-Feb-22 23:00N 36°04' W 014°53'1 0.8 1009.4 15.9
2018-Feb-22 22:00N 36°03' W 014°52'0 0.5 1009.6 15.9
2018-Feb-22 21:04N 36°03' W 014°52'0 0.0 1009.7 15.9
2018-Feb-22 21:00N 36°03' W 014°52'0 0.5 1009.7 15.9
2018-Feb-22 20:04N 36°03' W 014°51'0 0.0 1009.5 15.9
2018-Feb-22 20:00N 36°03' W 014°51'1 0.7 1009.5 15.9
2018-Feb-22 19:05N 36°04' W 014°51'0 0.0 1009.5 15.9
2018-Feb-22 19:00N 36°04' W 014°51'0 0.0 1009.5 15.9
2018-Feb-22 18:00N 36°04' W 014°51'1 0.8 1009.3 16.0
2018-Feb-22 17:00N 36°04' W 014°50'0 0.5 1009.9 16.0
2018-Feb-22 16:04N 36°04' W 014°51'0 0.0 1010.3 16.0
2018-Feb-22 16:00N 36°04' W 014°51'0 0.0 1010.3 16.0
2018-Feb-22 15:04N 36°04' W 014°51'0 0.0 1010.7 16.0
2018-Feb-22 15:00N 36°04' W 014°51'0 0.0 1010.7 16.0
2018-Feb-22 14:00N 36°04' W 014°51'0 0.5 1011.7 16.0
2018-Feb-22 13:00N 36°04' W 014°52'1 0.8 1012.5 16.0
2018-Feb-22 12:05N 36°05' W 014°51'0 0.0 1012.7 16.0
2018-Feb-22 12:00N 36°05' W 014°51'0 0.5 1012.7 16.0
2018-Feb-22 11:05N 36°05' W 014°50'0 0.0 1012.6 15.9
2018-Feb-22 11:00N 36°05' W 014°50'1 0.8 1012.6 16.0
2018-Feb-22 10:04N 36°05' W 014°50'0 0.0 1012.4 16.0
2018-Feb-22 10:00N 36°05' W 014°50'1 0.6 1012.4 16.0
2018-Feb-22 09:00N 36°06' W 014°50'1 0.8 1012.2 16.0
2018-Feb-22 08:05N 36°07' W 014°49'1 7.2 1012.0 15.9
2018-Feb-22 08:00N 36°07' W 014°49'0 0.0 1012.0 15.9
2018-Feb-22 07:07N 36°07' W 014°49'0 0.0 1011.6 15.9
2018-Feb-22 07:00N 36°07' W 014°49'1 0.6 1011.6 15.9
2018-Feb-22 06:04N 36°08' W 014°49'1 9.0 1011.5 15.9
2018-Feb-22 06:00N 36°08' W 014°49'0 0.0 1011.5 15.9
2018-Feb-22 05:04N 36°08' W 014°49'0 0.0 1011.3 15.9
2018-Feb-22 05:00N 36°08' W 014°49'1 0.7 1011.3 15.9
2018-Feb-22 04:06N 36°09' W 014°49'0 0.0 1011.6 16.0
2018-Feb-22 04:00N 36°09' W 014°49'1 0.9 1011.6 16.0
2018-Feb-22 03:08N 36°10' W 014°49'0 3.6 1012.0 16.0
2018-Feb-22 03:00N 36°10' W 014°49'10 0.3 1012.0 16.0
2018-Feb-20 14:04N 36°17' W 014°41'0 0.0 1021.3 15.9
2018-Feb-20 14:00N 36°17' W 014°41'1 0.8 1021.3 15.9
2018-Feb-20 13:05N 36°17' W 014°41'1 7.2 1022.1 15.9
2018-Feb-20 13:00N 36°17' W 014°41'1 0.6 1022.1 15.9
2018-Feb-20 12:00N 36°17' W 014°41'1 0.9 1022.7 15.9
2018-Feb-20 11:08N 36°18' W 014°40'0 0.0 1022.9 15.9
2018-Feb-20 11:00N 36°18' W 014°40'0 0.5 1022.9 15.9
2018-Feb-20 10:04N 36°18' W 014°40'0 0.0 1022.8 15.9
2018-Feb-20 10:00N 36°18' W 014°40'1 0.8 1022.8 15.9
2018-Feb-20 09:04N 36°19' W 014°39'0 0.0 1022.7 15.9
2018-Feb-20 09:00N 36°19' W 014°39'1 0.7 1022.7 15.9
2018-Feb-20 08:05N 36°19' W 014°39'0 0.0 1022.2 15.9
2018-Feb-20 08:00N 36°19' W 014°39'0 0.5 1022.2 15.9
2018-Feb-20 07:05N 36°19' W 014°38'0 0.0 1022.0 15.9
2018-Feb-20 07:00N 36°19' W 014°38'0 0.5 1022.0 15.9
2018-Feb-20 06:04N 36°19' W 014°38'0 0.0 1022.0 15.9
2018-Feb-20 06:00N 36°19' W 014°38'0 0.5 1022.0 15.9
2018-Feb-20 05:04N 36°19' W 014°37'0 0.0 1022.3 15.9
2018-Feb-20 05:00N 36°19' W 014°37'0 0.5 1022.3 15.9
2018-Feb-20 04:02N 36°19' W 014°37'0 0.0 1022.6 16.0
2018-Feb-20 04:00N 36°19' W 014°37'0 0.5 1022.6 16.0
2018-Feb-20 03:04N 36°19' W 014°36'1 9.0 1023.0 15.9
2018-Feb-20 03:00N 36°20' W 014°36'0 0.5 1023.0 15.9
2018-Feb-20 02:00N 36°20' W 014°35'1 0.8 1023.1 15.9
2018-Feb-20 01:05N 36°20' W 014°35'0 0.0 1023.3 15.9
2018-Feb-20 01:00N 36°20' W 014°35'1 0.8 1023.3 16.0
2018-Feb-20 00:05N 36°21' W 014°34'0 0.0 1023.5 16.0
2018-Feb-20 00:00N 36°21' W 014°34'0 0.5 1023.5 16.0
2018-Feb-19 23:05N 36°21' W 014°34'1 7.2 1023.5 16.0
2018-Feb-19 23:00N 36°22' W 014°34'0 0.5 1023.5 16.0
2018-Feb-19 22:04N 36°22' W 014°33'1 9.0 1023.6 16.0
2018-Feb-19 22:00N 36°22' W 014°33'0 0.0 1023.6 16.0
2018-Feb-19 21:04N 36°22' W 014°33'0 0.0 1023.4 16.0
2018-Feb-19 21:00N 36°22' W 014°33'1 0.8 1023.4 16.0
2018-Feb-19 20:04N 36°23' W 014°32'0 0.0 1023.0 15.9
2018-Feb-19 20:00N 36°23' W 014°32'1 0.6 1023.0 15.9
2018-Feb-19 19:04N 36°23' W 014°32'0 0.0 1022.9 15.9
2018-Feb-19 19:00N 36°23' W 014°32'0 0.5 1022.9 15.9
2018-Feb-19 18:05N 36°23' W 014°32'1 7.2 1022.5 15.9
2018-Feb-19 18:00N 36°24' W 014°32'0 0.0 1022.5 15.9
2018-Feb-19 17:05N 36°24' W 014°32'0 0.0 1022.3 16.0
2018-Feb-19 17:00N 36°24' W 014°32'0 0.5 1022.3 16.0
2018-Feb-19 16:00N 36°24' W 014°31'1 0.8 1022.2 16.0
2018-Feb-19 15:05N 36°25' W 014°31'0 0.0 1022.2 15.9
2018-Feb-19 15:00N 36°25' W 014°31'0 0.5 1022.2 16.0
2018-Feb-19 14:04N 36°25' W 014°30'0 0.0 1022.7 15.9
2018-Feb-19 14:00N 36°25' W 014°30'1 0.8 1022.7 15.9
2018-Feb-19 13:05N 36°25' W 014°29'0 5.8 1023.2 15.9
2018-Feb-19 13:00N 36°25' W 014°30'1 1.2 1023.2 15.9
2018-Feb-19 12:02N 36°26' W 014°29'0 0.0 1023.3 15.9
2018-Feb-19 12:00N 36°26' W 014°29'0 0.5 1023.3 15.9
2018-Feb-19 11:00N 36°26' W 014°28'1 0.7 1023.4 15.9
2018-Feb-19 10:05N 36°26' W 014°28'0 0.0 1023.2 15.9
2018-Feb-19 10:00N 36°26' W 014°28'0 0.5 1023.2 15.9
2018-Feb-19 09:00N 36°26' W 014°28'0 0.0 1022.9 15.8
2018-Feb-19 08:01N 36°26' W 014°28'0 0.0 1022.8 15.9
2018-Feb-19 08:00N 36°26' W 014°28'0 0.5 1022.8 15.9
2018-Feb-19 07:06N 36°26' W 014°27'0 0.0 1022.2 15.9
2018-Feb-19 07:00N 36°26' W 014°27'0 0.5 1022.2 15.9
2018-Feb-19 06:04N 36°26' W 014°26'0 0.0 1022.2 15.9
2018-Feb-19 06:00N 36°26' W 014°26'0 0.5 1022.2 15.9
2018-Feb-19 05:04N 36°26' W 014°26'0 7.2 1021.8 15.9
2018-Feb-19 05:00N 36°26' W 014°26'0 0.5 1021.8 15.9
2018-Feb-19 04:00N 36°26' W 014°26'0 0.5 1021.6 15.9
2018-Feb-19 03:05N 36°26' W 014°25'0 0.0 1021.8 15.9
2018-Feb-19 03:00N 36°26' W 014°25'0 0.5 1021.8 16.0
2018-Feb-19 02:05N 36°26' W 014°25'0 0.0 1022.1 15.9
2018-Feb-19 02:00N 36°26' W 014°25'0 0.5 1022.1 16.0
2018-Feb-19 01:05N 36°26' W 014°24'0 0.0 1022.6 15.9
2018-Feb-19 01:00N 36°26' W 014°24'0 0.5 1022.6 16.0
2018-Feb-19 00:04N 36°26' W 014°23'0 0.0 1023.0 15.9
2018-Feb-19 00:00N 36°26' W 014°23'1 0.9 1023.0 16.0
2018-Feb-18 23:07N 36°27' W 014°23'0 0.0 1023.2 15.9
2018-Feb-18 23:00N 36°27' W 014°23'0 0.0 1023.2 15.9
2018-Feb-18 22:05N 36°27' W 014°23'0 0.0 1023.4 15.9
2018-Feb-18 22:00N 36°27' W 014°23'0 0.5 1023.4 15.9
2018-Feb-18 21:04N 36°27' W 014°22'1 0.6 1023.4 15.9
2018-Feb-18 20:05N 36°28' W 014°22'0 0.0 1023.3 15.9
2018-Feb-18 20:00N 36°28' W 014°22'0 0.5 1023.3 15.9
2018-Feb-18 19:00N 36°28' W 014°22'0 0.0 1023.4 15.9
2018-Feb-18 18:01N 36°28' W 014°22'0 0.0 1023.1 15.9
2018-Feb-18 18:00N 36°28' W 014°22'0 0.0 1023.1 16.0
2018-Feb-18 17:06N 36°28' W 014°22'0 0.0 1023.2 15.9
2018-Feb-18 17:00N 36°28' W 014°22'0 0.5 1023.2 16.0
2018-Feb-18 16:05N 36°28' W 014°21'0 0.0 1023.3 16.0
2018-Feb-18 16:00N 36°28' W 014°21'0 0.5 1023.3 16.0
2018-Feb-18 15:05N 36°28' W 014°20'0 0.0 1023.5 16.0
2018-Feb-18 15:00N 36°28' W 014°20'1 1.1 1023.5 16.0
2018-Feb-18 14:06N 36°28' W 014°19'0 0.0 1024.1 16.0
2018-Feb-18 14:00N 36°28' W 014°19'0 0.5 1024.1 16.0
2018-Feb-18 13:05N 36°28' W 014°19'0 0.0 1024.9 16.0
2018-Feb-18 13:00N 36°28' W 014°19'0 0.5 1024.9 16.0
2018-Feb-18 12:05N 36°28' W 014°18'0 0.0 1025.4 16.0
2018-Feb-18 12:00N 36°28' W 014°18'1 0.8 1025.4 16.0
2018-Feb-18 11:05N 36°28' W 014°17'0 0.0 1025.6 15.9
2018-Feb-18 11:00N 36°28' W 014°17'1 0.8 1025.6 16.0
2018-Feb-18 10:00N 36°29' W 014°17'1 0.6 1025.8 16.0
2018-Feb-18 09:04N 36°29' W 014°17'0 0.0 1025.9 15.9
2018-Feb-18 09:00N 36°29' W 014°17'0 0.5 1025.9 15.9
2018-Feb-18 08:05N 36°29' W 014°16'0 0.0 1025.5 16.0
2018-Feb-18 08:00N 36°29' W 014°16'1 0.6 1025.5 16.0
2018-Feb-18 07:04N 36°30' W 014°16'0 0.0 1025.3 16.0
2018-Feb-18 07:00N 36°30' W 014°16'0 0.5 1025.3 16.0
2018-Feb-18 06:05N 36°30' W 014°16'0 0.0 1025.2 16.0
2018-Feb-18 06:00N 36°30' W 014°16'0 0.0 1025.2 16.0
2018-Feb-18 05:05N 36°30' W 014°16'0 0.0 1025.1 15.9
2018-Feb-18 05:00N 36°30' W 014°16'0 0.5 1025.1 15.9
2018-Feb-18 04:06N 36°30' W 014°15'0 0.0 1025.6 15.9
2018-Feb-18 04:00N 36°30' W 014°15'0 0.5 1025.6 15.9
2018-Feb-18 03:05N 36°30' W 014°14'0 0.0 1026.1 15.9
2018-Feb-18 03:00N 36°30' W 014°14'0 0.0 1026.1 15.9
2018-Feb-18 02:04N 36°30' W 014°14'0 0.0 1026.5 15.9
2018-Feb-18 02:00N 36°30' W 014°14'0 0.5 1026.5 15.9
2018-Feb-18 01:04N 36°30' W 014°14'0 0.0 1026.8 15.9
2018-Feb-18 01:00N 36°30' W 014°14'1 0.6 1026.8 15.9
2018-Feb-18 00:04N 36°31' W 014°14'0 0.0 1026.9 15.9
2018-Feb-18 00:00N 36°31' W 014°14'0 0.5 1026.9 15.9
2018-Feb-17 23:05N 36°31' W 014°13'1 7.2 1027.3 15.9
2018-Feb-17 23:00N 36°31' W 014°13'0 0.0 1027.3 15.9
2018-Feb-17 22:04N 36°31' W 014°13'0 0.0 1027.1 15.9
2018-Feb-17 22:00N 36°31' W 014°13'0 0.5 1027.1 15.9
2018-Feb-17 21:04N 36°31' W 014°13'0 0.0 1027.0 15.9
2018-Feb-17 21:00N 36°31' W 014°13'1 0.8 1027.0 16.0
2018-Feb-17 20:04N 36°32' W 014°12'0 0.0 1026.7 16.0
2018-Feb-17 20:00N 36°32' W 014°12'0 0.5 1026.7 16.0
2018-Feb-17 19:05N 36°32' W 014°11'0 0.0 1026.4 16.0
2018-Feb-17 19:00N 36°32' W 014°11'1 0.9 1026.4 16.0
2018-Feb-17 18:09N 36°32' W 014°11'0 0.0 1026.1 16.0
2018-Feb-17 17:04N 36°32' W 014°11'0 0.0 1026.0 16.0
2018-Feb-17 17:00N 36°32' W 014°11'0 0.5 1026.0 16.0
2018-Feb-17 16:04N 36°32' W 014°10'0 0.0 1025.8 16.0
2018-Feb-17 16:00N 36°32' W 014°10'0 0.6 1025.8 16.0
2018-Feb-17 15:08N 36°32' W 014°10'0 0.0 1025.7 16.0
2018-Feb-17 15:00N 36°32' W 014°10'0 0.5 1025.7 16.0
2018-Feb-17 14:05N 36°32' W 014°09'0 0.0 1026.2 16.1
2018-Feb-17 14:00N 36°32' W 014°09'1 0.8 1026.2 16.1
2018-Feb-17 13:00N 36°33' W 014°08'0 0.5 1026.8 16.1
2018-Feb-17 12:00N 36°33' W 014°08'1 0.9 1027.3 16.0
2018-Feb-17 11:06N 36°34' W 014°07'0 0.0 1027.1 16.0
2018-Feb-17 11:00N 36°34' W 014°07'1 0.8 1027.1 16.0
2018-Feb-17 10:04N 36°34' W 014°07'0 0.0 1026.9 16.0
2018-Feb-17 10:00N 36°34' W 014°07'1 0.6 1026.9 16.0
2018-Feb-17 09:04N 36°35' W 014°07'0 0.0 1026.3 16.0
2018-Feb-17 09:00N 36°35' W 014°07'1 0.8 1026.3 16.0
2018-Feb-17 08:01N 36°35' W 014°06'0 0.0 1025.8 16.0
2018-Feb-17 08:00N 36°35' W 014°06'1 0.7 1025.8 16.0
2018-Feb-17 07:06N 36°36' W 014°06'0 0.0 1025.4 16.0
2018-Feb-17 07:00N 36°36' W 014°06'0 0.0 1025.4 16.0
2018-Feb-17 06:04N 36°36' W 014°06'0 0.0 1025.2 16.0
2018-Feb-17 06:00N 36°36' W 014°06'1 0.8 1025.2 16.0
2018-Feb-17 05:00N 36°37' W 014°07'0 0.0 1025.0 16.0
2018-Feb-17 04:05N 36°37' W 014°07'0 5.8 1025.0 16.0
2018-Feb-17 04:00N 36°37' W 014°07'0 0.0 1025.0 16.0
2018-Feb-17 03:04N 36°37' W 014°07'0 0.0 1025.0 16.0
2018-Feb-17 03:00N 36°37' W 014°07'0 0.5 1025.0 16.0
2018-Feb-17 02:04N 36°37' W 014°08'0 0.0 1025.2 16.0
2018-Feb-17 02:00N 36°37' W 014°08'0 0.5 1025.2 16.0
2018-Feb-17 01:00N 36°37' W 014°08'0 0.0 1025.4 16.0
2018-Feb-17 00:06N 36°37' W 014°08'0 0.0 1025.5 16.0
2018-Feb-17 00:00N 36°37' W 014°08'0 0.0 1025.5 16.0
2018-Feb-16 23:05N 36°37' W 014°08'0 0.0 1025.6 16.0
2018-Feb-16 23:00N 36°37' W 014°08'0 0.0 1025.6 16.0
2018-Feb-16 22:04N 36°37' W 014°08'0 0.0 1025.4 16.0
2018-Feb-16 22:00N 36°37' W 014°08'1 0.6 1025.4 16.0
2018-Feb-16 21:00N 36°37' W 014°08'0 0.5 1025.2 16.1
2018-Feb-16 20:00N 36°37' W 014°09'0 0.0 1024.8 16.1
2018-Feb-16 19:05N 36°37' W 014°09'1 9.2 1024.5 16.1
2018-Feb-16 19:00N 36°38' W 014°10'0 0.0 1024.5 16.1
2018-Feb-16 18:05N 36°38' W 014°10'0 5.8 1024.0 16.1
2018-Feb-16 18:00N 36°38' W 014°10'0 0.0 1024.0 16.1
2018-Feb-16 17:05N 36°38' W 014°10'0 5.8 1023.9 16.1
2018-Feb-16 17:00N 36°38' W 014°11'0 0.5 1023.9 16.1
2018-Feb-16 16:00N 36°38' W 014°11'0 0.5 1023.7 16.1
2018-Feb-16 15:04N 36°38' W 014°12'0 0.0 1023.7 16.1
2018-Feb-16 15:00N 36°38' W 014°12'1 0.6 1023.7 16.1
2018-Feb-16 14:00N 36°37' W 014°12'0 0.5 1024.2 16.1
2018-Feb-16 13:05N 36°37' W 014°13'0 0.0 1024.7 16.0
2018-Feb-16 13:00N 36°37' W 014°13'1 0.7 1024.7 16.0
2018-Feb-16 12:08N 36°37' W 014°13'0 0.0 1025.2 16.0
2018-Feb-16 12:00N 36°37' W 014°13'0 0.0 1025.2 16.0
2018-Feb-16 11:06N 36°37' W 014°13'0 0.0 1025.3 16.0
2018-Feb-16 11:00N 36°37' W 014°13'0 0.0 1025.3 16.0
2018-Feb-16 10:04N 36°37' W 014°13'0 7.2 1025.0 15.9
2018-Feb-16 10:00N 36°37' W 014°13'1 0.7 1025.0 15.9
2018-Feb-16 09:05N 36°37' W 014°13'0 0.0 1024.6 15.9
2018-Feb-16 09:00N 36°37' W 014°13'0 0.0 1024.6 15.9
2018-Feb-16 08:00N 36°37' W 014°13'0 0.5 1024.0 15.9
2018-Feb-16 07:05N 36°37' W 014°14'0 0.0 1023.8 15.9
2018-Feb-16 07:00N 36°37' W 014°14'1 0.6 1023.8 15.9
2018-Feb-16 06:04N 36°37' W 014°14'0 7.2 1023.9 15.9
2018-Feb-16 06:00N 36°37' W 014°14'0 0.0 1023.9 16.0
2018-Feb-16 05:01N 36°37' W 014°14'0 0.0 1023.9 15.9
2018-Feb-16 05:00N 36°37' W 014°14'0 0.5 1023.9 15.9
2018-Feb-16 04:06N 36°37' W 014°15'0 0.0 1024.1 15.9
2018-Feb-16 04:00N 36°37' W 014°15'1 0.7 1024.1 16.0
2018-Feb-16 03:07N 36°36' W 014°15'0 0.0 1024.4 16.0
2018-Feb-16 03:00N 36°36' W 014°15'1 0.8 1024.4 16.0
2018-Feb-16 02:04N 36°35' W 014°16'0 0.0 1024.6 16.0
2018-Feb-16 01:04N 36°35' W 014°16'0 0.0 1024.8 16.0
2018-Feb-16 01:00N 36°35' W 014°16'1 0.8 1024.8 16.0
2018-Feb-16 00:05N 36°35' W 014°15'0 5.8 1025.0 16.0
2018-Feb-16 00:00N 36°35' W 014°16'0 0.5 1025.0 16.0
2018-Feb-15 23:07N 36°35' W 014°15'0 0.0 1025.4 16.0
2018-Feb-15 23:00N 36°35' W 014°15'0 0.0 1025.4 16.0
2018-Feb-15 22:04N 36°35' W 014°15'0 0.0 1025.5 16.0
2018-Feb-15 22:00N 36°35' W 014°15'0 0.0 1025.5 16.0
2018-Feb-15 21:04N 36°35' W 014°15'0 0.0 1025.6 15.9
2018-Feb-15 21:00N 36°35' W 014°15'0 0.0 1025.6 16.0
2018-Feb-15 20:05N 36°35' W 014°15'0 0.0 1025.6 16.0
2018-Feb-15 20:01N 36°35' W 014°15'0 0.0 1025.4 16.1
2018-Feb-15 20:00N 36°35' W 014°15'0 0.0 1025.6 16.0
2018-Feb-15 19:00N 36°35' W 014°15'0 0.0 1025.4 16.1
2018-Feb-15 18:05N 36°35' W 014°15'0 0.0 1025.0 16.1
2018-Feb-15 18:00N 36°35' W 014°15'0 0.5 1025.0 16.1
2018-Feb-15 17:05N 36°35' W 014°16'0 0.0 1024.4 16.1
2018-Feb-15 17:00N 36°35' W 014°16'0 0.0 1024.4 16.1
2018-Feb-15 16:04N 36°35' W 014°16'0 0.0 1024.2 16.1
2018-Feb-15 16:00N 36°35' W 014°16'1 0.8 1024.2 16.2
2018-Feb-15 15:04N 36°34' W 014°16'0 0.0 1024.3 16.1
2018-Feb-15 15:00N 36°34' W 014°16'0 0.0 1024.3 16.1
2018-Feb-15 14:06N 36°34' W 014°16'0 0.0 1024.9 16.1
2018-Feb-15 14:00N 36°34' W 014°16'1 0.7 1024.9 16.1
2018-Feb-15 13:05N 36°34' W 014°16'0 5.8 1025.6 16.1
2018-Feb-15 13:00N 36°34' W 014°17'1 0.7 1025.6 16.1
2018-Feb-15 12:05N 36°33' W 014°17'0 0.0 1026.0 16.0
2018-Feb-15 12:00N 36°33' W 014°17'0 0.0 1026.0 16.0
2018-Feb-15 11:04N 36°33' W 014°17'0 0.0 1026.0 16.0
2018-Feb-15 11:00N 36°33' W 014°17'1 0.7 1026.0 16.0
2018-Feb-15 10:06N 36°32' W 014°17'0 0.0 1026.1 16.0
2018-Feb-15 10:00N 36°32' W 014°17'0 0.0 1026.1 16.0
2018-Feb-15 09:04N 36°32' W 014°17'0 0.0 1025.6 16.0
2018-Feb-15 09:00N 36°32' W 014°17'1 0.7 1025.6 16.0
2018-Feb-15 08:05N 36°32' W 014°17'0 0.0 1024.8 16.0
2018-Feb-15 08:00N 36°32' W 014°17'0 0.5 1024.8 16.0
2018-Feb-15 07:04N 36°32' W 014°17'0 0.0 1024.0 16.0
2018-Feb-15 07:00N 36°32' W 014°17'0 0.0 1024.0 16.0
2018-Feb-15 06:05N 36°32' W 014°17'0 0.0 1023.6 16.0
2018-Feb-15 06:00N 36°32' W 014°17'1 0.7 1023.6 16.0
2018-Feb-15 05:05N 36°31' W 014°17'0 0.0 1023.4 16.0
2018-Feb-15 05:00N 36°31' W 014°17'0 0.0 1023.4 16.0
2018-Feb-15 04:05N 36°31' W 014°17'0 0.0 1023.6 16.0
2018-Feb-15 04:00N 36°31' W 014°17'1 0.6 1023.6 16.0
2018-Feb-15 03:04N 36°31' W 014°17'0 0.0 1024.0 16.0
2018-Feb-15 03:00N 36°31' W 014°17'1 0.6 1024.0 16.0
2018-Feb-15 02:00N 36°30' W 014°17'0 0.0 1024.0 16.0
2018-Feb-15 01:00N 36°30' W 014°17'5 0.1 1024.3 16.0
2018-Feb-13 13:01N 36°28' W 014°23'0 0.0 1026.4 16.0
2018-Feb-13 13:00N 36°28' W 014°23'0 0.0 1026.4 16.0
2018-Feb-13 12:08N 36°28' W 014°23'0 0.0 1026.8 16.0
2018-Feb-13 12:00N 36°28' W 014°23'1 0.9 1026.8 16.0
2018-Feb-13 11:06N 36°27' W 014°23'0 0.0 1026.9 15.9
2018-Feb-13 11:00N 36°27' W 014°23'0 0.0 1026.9 16.0
2018-Feb-13 10:04N 36°27' W 014°23'0 0.0 1027.1 15.9
2018-Feb-13 10:00N 36°27' W 014°23'0 0.6 1027.1 15.9
2018-Feb-13 09:08N 36°27' W 014°22'0 0.0 1026.9 15.9
2018-Feb-13 09:00N 36°27' W 014°22'0 0.0 1026.9 15.9
2018-Feb-13 08:04N 36°27' W 014°22'0 0.0 1026.5 16.0
2018-Feb-13 08:00N 36°27' W 014°22'0 0.5 1026.5 16.0
2018-Feb-13 07:07N 36°27' W 014°22'   1026.2 16.0

Dump ship's entire track history